sensor_id;sensor_type;location;lat;lon;timestamp;P1;durP1;ratioP1;P2;durP2;ratioP2
1258;SDS011;619;51.472;6.628;2022-10-30T00:01:08;13.40;;;7.67;;
1258;SDS011;619;51.472;6.628;2022-10-30T00:03:34;13.47;;;8.13;;
1258;SDS011;619;51.472;6.628;2022-10-30T00:06:02;10.30;;;6.60;;
1258;SDS011;619;51.472;6.628;2022-10-30T00:08:28;8.97;;;6.37;;
1258;SDS011;619;51.472;6.628;2022-10-30T00:10:57;8.93;;;7.00;;
1258;SDS011;619;51.472;6.628;2022-10-30T00:13:38;11.93;;;7.33;;
1258;SDS011;619;51.472;6.628;2022-10-30T00:16:05;14.50;;;7.47;;
1258;SDS011;619;51.472;6.628;2022-10-30T00:18:33;9.67;;;6.53;;
1258;SDS011;619;51.472;6.628;2022-10-30T00:21:10;11.70;;;6.97;;
1258;SDS011;619;51.472;6.628;2022-10-30T00:23:37;10.33;;;6.80;;
1258;SDS011;619;51.472;6.628;2022-10-30T00:26:04;12.03;;;6.57;;
1258;SDS011;619;51.472;6.628;2022-10-30T00:28:31;11.60;;;7.47;;
1258;SDS011;619;51.472;6.628;2022-10-30T00:31:00;14.30;;;6.60;;
1258;SDS011;619;51.472;6.628;2022-10-30T00:33:29;13.43;;;7.07;;
1258;SDS011;619;51.472;6.628;2022-10-30T00:35:57;14.37;;;7.43;;
1258;SDS011;619;51.472;6.628;2022-10-30T00:38:26;16.33;;;7.57;;
1258;SDS011;619;51.472;6.628;2022-10-30T00:40:52;12.47;;;6.63;;
1258;SDS011;619;51.472;6.628;2022-10-30T00:45:55;11.37;;;6.47;;
1258;SDS011;619;51.472;6.628;2022-10-30T00:48:37;12.83;;;7.03;;
1258;SDS011;619;51.472;6.628;2022-10-30T00:51:06;10.37;;;6.53;;
1258;SDS011;619;51.472;6.628;2022-10-30T00:53:35;11.50;;;7.03;;
1258;SDS011;619;51.472;6.628;2022-10-30T00:56:02;13.23;;;7.30;;
1258;SDS011;619;51.472;6.628;2022-10-30T00:58:38;15.00;;;7.73;;
1258;SDS011;619;51.472;6.628;2022-10-30T01:01:10;13.10;;;7.17;;
1258;SDS011;619;51.472;6.628;2022-10-30T01:03:43;8.80;;;6.97;;
1258;SDS011;619;51.472;6.628;2022-10-30T01:06:14;14.93;;;7.20;;
1258;SDS011;619;51.472;6.628;2022-10-30T01:08:40;10.07;;;7.20;;
1258;SDS011;619;51.472;6.628;2022-10-30T01:11:10;10.90;;;6.87;;
1258;SDS011;619;51.472;6.628;2022-10-30T01:13:38;21.63;;;8.03;;
1258;SDS011;619;51.472;6.628;2022-10-30T01:34:55;8.27;;;6.70;;
1258;SDS011;619;51.472;6.628;2022-10-30T01:37:31;10.90;;;7.70;;
1258;SDS011;619;51.472;6.628;2022-10-30T01:40:13;13.93;;;7.30;;
1258;SDS011;619;51.472;6.628;2022-10-30T01:42:44;11.87;;;7.50;;
1258;SDS011;619;51.472;6.628;2022-10-30T01:45:15;10.87;;;7.20;;
1258;SDS011;619;51.472;6.628;2022-10-30T01:48:02;8.00;;;6.10;;
1258;SDS011;619;51.472;6.628;2022-10-30T01:50:50;11.33;;;7.67;;
1258;SDS011;619;51.472;6.628;2022-10-30T01:53:36;9.10;;;7.80;;
1258;SDS011;619;51.472;6.628;2022-10-30T01:56:22;12.40;;;6.80;;
1258;SDS011;619;51.472;6.628;2022-10-30T01:59:14;11.20;;;7.53;;
1258;SDS011;619;51.472;6.628;2022-10-30T02:01:51;12.80;;;7.50;;
1258;SDS011;619;51.472;6.628;2022-10-30T02:04:18;12.37;;;7.20;;
1258;SDS011;619;51.472;6.628;2022-10-30T02:06:46;15.47;;;7.60;;
1258;SDS011;619;51.472;6.628;2022-10-30T02:09:15;10.97;;;7.43;;
1258;SDS011;619;51.472;6.628;2022-10-30T02:11:43;11.37;;;8.03;;
1258;SDS011;619;51.472;6.628;2022-10-30T02:14:12;12.80;;;7.57;;
1258;SDS011;619;51.472;6.628;2022-10-30T02:16:46;10.87;;;7.77;;
1258;SDS011;619;51.472;6.628;2022-10-30T02:19:15;13.07;;;7.90;;
1258;SDS011;619;51.472;6.628;2022-10-30T02:21:41;14.03;;;8.10;;
1258;SDS011;619;51.472;6.628;2022-10-30T02:24:09;12.07;;;9.27;;
1258;SDS011;619;51.472;6.628;2022-10-30T02:26:35;13.57;;;8.20;;
1258;SDS011;619;51.472;6.628;2022-10-30T02:29:01;13.20;;;8.03;;
1258;SDS011;619;51.472;6.628;2022-10-30T02:31:29;14.53;;;8.50;;
1258;SDS011;619;51.472;6.628;2022-10-30T02:33:54;13.53;;;8.03;;
1258;SDS011;619;51.472;6.628;2022-10-30T02:36:20;10.70;;;7.23;;
1258;SDS011;619;51.472;6.628;2022-10-30T02:38:48;14.17;;;7.63;;
1258;SDS011;619;51.472;6.628;2022-10-30T02:41:14;17.33;;;8.23;;
1258;SDS011;619;51.472;6.628;2022-10-30T02:43:39;11.93;;;7.50;;
1258;SDS011;619;51.472;6.628;2022-10-30T02:46:05;11.17;;;8.27;;
1258;SDS011;619;51.472;6.628;2022-10-30T02:48:31;8.30;;;7.30;;
1258;SDS011;619;51.472;6.628;2022-10-30T02:51:02;13.03;;;8.67;;
1258;SDS011;619;51.472;6.628;2022-10-30T02:53:28;12.27;;;8.03;;
1258;SDS011;619;51.472;6.628;2022-10-30T02:55:54;14.47;;;8.00;;
1258;SDS011;619;51.472;6.628;2022-10-30T02:58:20;10.20;;;8.37;;
1258;SDS011;619;51.472;6.628;2022-10-30T03:00:45;10.53;;;7.80;;
1258;SDS011;619;51.472;6.628;2022-10-30T03:03:11;9.40;;;7.57;;
1258;SDS011;619;51.472;6.628;2022-10-30T03:05:39;14.30;;;8.17;;
1258;SDS011;619;51.472;6.628;2022-10-30T03:08:06;10.10;;;7.67;;
1258;SDS011;619;51.472;6.628;2022-10-30T03:10:34;9.73;;;8.63;;
1258;SDS011;619;51.472;6.628;2022-10-30T03:13:05;11.13;;;7.77;;
1258;SDS011;619;51.472;6.628;2022-10-30T03:15:30;8.17;;;7.27;;
1258;SDS011;619;51.472;6.628;2022-10-30T03:17:56;16.50;;;8.57;;
1258;SDS011;619;51.472;6.628;2022-10-30T03:20:21;13.80;;;9.00;;
1258;SDS011;619;51.472;6.628;2022-10-30T03:22:47;10.07;;;6.93;;
1258;SDS011;619;51.472;6.628;2022-10-30T03:25:15;11.90;;;8.03;;
1258;SDS011;619;51.472;6.628;2022-10-30T03:27:47;12.67;;;8.20;;
1258;SDS011;619;51.472;6.628;2022-10-30T03:30:13;7.77;;;7.07;;
1258;SDS011;619;51.472;6.628;2022-10-30T03:32:38;16.17;;;8.17;;
1258;SDS011;619;51.472;6.628;2022-10-30T03:35:04;16.53;;;9.20;;
1258;SDS011;619;51.472;6.628;2022-10-30T03:37:30;13.00;;;9.07;;
1258;SDS011;619;51.472;6.628;2022-10-30T03:39:55;12.57;;;7.53;;
1258;SDS011;619;51.472;6.628;2022-10-30T03:42:21;12.93;;;7.70;;
1258;SDS011;619;51.472;6.628;2022-10-30T03:44:48;10.40;;;8.37;;
1258;SDS011;619;51.472;6.628;2022-10-30T03:47:14;12.00;;;8.40;;
1258;SDS011;619;51.472;6.628;2022-10-30T03:49:42;14.23;;;8.63;;
1258;SDS011;619;51.472;6.628;2022-10-30T03:52:07;12.03;;;8.37;;
1258;SDS011;619;51.472;6.628;2022-10-30T03:54:33;13.83;;;7.90;;
1258;SDS011;619;51.472;6.628;2022-10-30T03:57:01;14.50;;;8.60;;
1258;SDS011;619;51.472;6.628;2022-10-30T03:59:28;15.43;;;8.20;;
1258;SDS011;619;51.472;6.628;2022-10-30T04:01:57;9.93;;;8.20;;
1258;SDS011;619;51.472;6.628;2022-10-30T04:04:22;9.20;;;7.77;;
1258;SDS011;619;51.472;6.628;2022-10-30T04:06:48;14.00;;;9.20;;
1258;SDS011;619;51.472;6.628;2022-10-30T04:09:16;12.17;;;8.60;;
1258;SDS011;619;51.472;6.628;2022-10-30T04:11:41;10.73;;;8.00;;
1258;SDS011;619;51.472;6.628;2022-10-30T04:14:10;11.07;;;8.40;;
1258;SDS011;619;51.472;6.628;2022-10-30T04:16:35;11.73;;;7.93;;
1258;SDS011;619;51.472;6.628;2022-10-30T04:19:01;9.83;;;7.70;;
1258;SDS011;619;51.472;6.628;2022-10-30T04:21:29;13.33;;;8.70;;
1258;SDS011;619;51.472;6.628;2022-10-30T04:23:55;13.27;;;8.73;;
1258;SDS011;619;51.472;6.628;2022-10-30T04:26:21;13.40;;;7.70;;
1258;SDS011;619;51.472;6.628;2022-10-30T04:28:46;14.43;;;7.40;;
1258;SDS011;619;51.472;6.628;2022-10-30T04:31:12;13.13;;;7.60;;
1258;SDS011;619;51.472;6.628;2022-10-30T04:33:38;16.77;;;8.67;;
1258;SDS011;619;51.472;6.628;2022-10-30T04:36:03;12.03;;;8.57;;
1258;SDS011;619;51.472;6.628;2022-10-30T04:38:29;13.53;;;8.67;;
1258;SDS011;619;51.472;6.628;2022-10-30T04:40:55;13.73;;;7.83;;
1258;SDS011;619;51.472;6.628;2022-10-30T04:43:21;9.90;;;8.10;;
1258;SDS011;619;51.472;6.628;2022-10-30T04:45:46;10.90;;;7.27;;
1258;SDS011;619;51.472;6.628;2022-10-30T04:48:15;13.47;;;8.57;;
1258;SDS011;619;51.472;6.628;2022-10-30T04:50:42;12.53;;;7.30;;
1258;SDS011;619;51.472;6.628;2022-10-30T04:53:11;9.47;;;7.87;;
1258;SDS011;619;51.472;6.628;2022-10-30T04:55:41;12.40;;;8.77;;
1258;SDS011;619;51.472;6.628;2022-10-30T04:58:12;13.97;;;8.30;;
1258;SDS011;619;51.472;6.628;2022-10-30T05:00:38;13.93;;;7.77;;
1258;SDS011;619;51.472;6.628;2022-10-30T05:03:04;12.40;;;7.57;;
1258;SDS011;619;51.472;6.628;2022-10-30T05:05:30;14.27;;;8.70;;
1258;SDS011;619;51.472;6.628;2022-10-30T05:07:58;17.40;;;7.77;;
1258;SDS011;619;51.472;6.628;2022-10-30T05:10:25;9.23;;;8.23;;
1258;SDS011;619;51.472;6.628;2022-10-30T05:12:56;14.80;;;8.37;;
1258;SDS011;619;51.472;6.628;2022-10-30T05:15:24;16.30;;;9.43;;
1258;SDS011;619;51.472;6.628;2022-10-30T05:17:52;9.83;;;8.80;;
1258;SDS011;619;51.472;6.628;2022-10-30T05:20:20;9.17;;;8.03;;
1258;SDS011;619;51.472;6.628;2022-10-30T05:22:52;9.90;;;8.10;;
1258;SDS011;619;51.472;6.628;2022-10-30T05:25:21;12.40;;;7.97;;
1258;SDS011;619;51.472;6.628;2022-10-30T05:27:47;12.77;;;8.93;;
1258;SDS011;619;51.472;6.628;2022-10-30T05:30:15;12.07;;;8.73;;
1258;SDS011;619;51.472;6.628;2022-10-30T05:32:41;19.10;;;9.63;;
1258;SDS011;619;51.472;6.628;2022-10-30T05:35:08;15.37;;;8.83;;
1258;SDS011;619;51.472;6.628;2022-10-30T05:37:36;13.73;;;9.33;;
1258;SDS011;619;51.472;6.628;2022-10-30T05:40:02;15.53;;;8.37;;
1258;SDS011;619;51.472;6.628;2022-10-30T05:42:28;13.07;;;8.80;;
1258;SDS011;619;51.472;6.628;2022-10-30T05:44:56;15.80;;;9.13;;
1258;SDS011;619;51.472;6.628;2022-10-30T05:47:22;13.97;;;9.00;;
1258;SDS011;619;51.472;6.628;2022-10-30T05:49:47;11.87;;;9.17;;
1258;SDS011;619;51.472;6.628;2022-10-30T05:52:13;12.63;;;8.50;;
1258;SDS011;619;51.472;6.628;2022-10-30T05:54:41;15.43;;;8.50;;
1258;SDS011;619;51.472;6.628;2022-10-30T05:57:09;12.43;;;8.40;;
1258;SDS011;619;51.472;6.628;2022-10-30T05:59:35;12.77;;;9.63;;
1258;SDS011;619;51.472;6.628;2022-10-30T06:02:02;14.97;;;9.80;;
1258;SDS011;619;51.472;6.628;2022-10-30T06:04:30;12.43;;;8.60;;
1258;SDS011;619;51.472;6.628;2022-10-30T06:06:56;13.43;;;8.80;;
1258;SDS011;619;51.472;6.628;2022-10-30T06:09:24;13.80;;;8.50;;
1258;SDS011;619;51.472;6.628;2022-10-30T06:11:49;16.10;;;8.47;;
1258;SDS011;619;51.472;6.628;2022-10-30T06:14:15;12.40;;;7.83;;
1258;SDS011;619;51.472;6.628;2022-10-30T06:16:40;12.10;;;7.73;;
1258;SDS011;619;51.472;6.628;2022-10-30T06:19:06;15.87;;;8.87;;
1258;SDS011;619;51.472;6.628;2022-10-30T06:21:32;14.27;;;8.63;;
1258;SDS011;619;51.472;6.628;2022-10-30T06:23:57;9.57;;;7.30;;
1258;SDS011;619;51.472;6.628;2022-10-30T06:26:23;8.77;;;7.67;;
1258;SDS011;619;51.472;6.628;2022-10-30T06:28:48;13.33;;;8.30;;
1258;SDS011;619;51.472;6.628;2022-10-30T06:31:14;12.30;;;8.83;;
1258;SDS011;619;51.472;6.628;2022-10-30T06:33:42;12.60;;;8.83;;
1258;SDS011;619;51.472;6.628;2022-10-30T06:36:10;10.47;;;8.27;;
1258;SDS011;619;51.472;6.628;2022-10-30T06:38:35;14.00;;;9.77;;
1258;SDS011;619;51.472;6.628;2022-10-30T06:41:01;11.50;;;7.83;;
1258;SDS011;619;51.472;6.628;2022-10-30T06:43:29;16.80;;;8.77;;
1258;SDS011;619;51.472;6.628;2022-10-30T06:45:57;11.17;;;7.60;;
1258;SDS011;619;51.472;6.628;2022-10-30T06:48:25;12.60;;;8.63;;
1258;SDS011;619;51.472;6.628;2022-10-30T06:50:57;12.30;;;8.53;;
1258;SDS011;619;51.472;6.628;2022-10-30T06:53:27;14.43;;;8.10;;
1258;SDS011;619;51.472;6.628;2022-10-30T06:58:23;17.10;;;10.20;;
1258;SDS011;619;51.472;6.628;2022-10-30T07:00:52;14.00;;;9.33;;
1258;SDS011;619;51.472;6.628;2022-10-30T07:03:20;12.07;;;8.70;;
1258;SDS011;619;51.472;6.628;2022-10-30T07:05:48;12.90;;;8.67;;
1258;SDS011;619;51.472;6.628;2022-10-30T07:08:18;14.50;;;9.37;;
1258;SDS011;619;51.472;6.628;2022-10-30T07:10:46;13.63;;;7.93;;
1258;SDS011;619;51.472;6.628;2022-10-30T07:13:11;12.80;;;8.67;;
1258;SDS011;619;51.472;6.628;2022-10-30T07:15:37;9.77;;;8.60;;
1258;SDS011;619;51.472;6.628;2022-10-30T07:18:03;17.20;;;8.87;;
1258;SDS011;619;51.472;6.628;2022-10-30T07:20:29;12.83;;;9.37;;
1258;SDS011;619;51.472;6.628;2022-10-30T07:22:57;11.60;;;8.60;;
1258;SDS011;619;51.472;6.628;2022-10-30T07:25:25;14.20;;;8.40;;
1258;SDS011;619;51.472;6.628;2022-10-30T07:27:54;14.70;;;9.00;;
1258;SDS011;619;51.472;6.628;2022-10-30T07:30:25;13.73;;;8.70;;
1258;SDS011;619;51.472;6.628;2022-10-30T07:32:59;10.93;;;9.23;;
1258;SDS011;619;51.472;6.628;2022-10-30T07:35:30;11.90;;;8.57;;
1258;SDS011;619;51.472;6.628;2022-10-30T07:38:03;14.37;;;9.27;;
1258;SDS011;619;51.472;6.628;2022-10-30T07:40:32;19.73;;;9.40;;
1258;SDS011;619;51.472;6.628;2022-10-30T07:42:58;17.40;;;8.80;;
1258;SDS011;619;51.472;6.628;2022-10-30T07:45:27;14.43;;;8.57;;
1258;SDS011;619;51.472;6.628;2022-10-30T07:47:53;21.40;;;9.07;;
1258;SDS011;619;51.472;6.628;2022-10-30T07:50:19;15.90;;;8.90;;
1258;SDS011;619;51.472;6.628;2022-10-30T07:52:45;15.60;;;8.50;;
1258;SDS011;619;51.472;6.628;2022-10-30T07:55:11;18.10;;;8.03;;
1258;SDS011;619;51.472;6.628;2022-10-30T07:57:40;18.27;;;9.30;;
1258;SDS011;619;51.472;6.628;2022-10-30T08:00:07;11.77;;;9.03;;
1258;SDS011;619;51.472;6.628;2022-10-30T08:02:39;11.67;;;8.10;;
1258;SDS011;619;51.472;6.628;2022-10-30T08:05:05;16.40;;;8.63;;
1258;SDS011;619;51.472;6.628;2022-10-30T08:07:32;14.53;;;9.10;;
1258;SDS011;619;51.472;6.628;2022-10-30T08:09:58;9.40;;;8.53;;
1258;SDS011;619;51.472;6.628;2022-10-30T08:12:27;11.53;;;9.33;;
1258;SDS011;619;51.472;6.628;2022-10-30T08:14:53;9.73;;;8.30;;
1258;SDS011;619;51.472;6.628;2022-10-30T08:17:21;10.47;;;7.83;;
1258;SDS011;619;51.472;6.628;2022-10-30T08:19:46;12.13;;;7.60;;
1258;SDS011;619;51.472;6.628;2022-10-30T08:22:15;10.87;;;8.70;;
1258;SDS011;619;51.472;6.628;2022-10-30T08:24:40;16.03;;;9.53;;
1258;SDS011;619;51.472;6.628;2022-10-30T08:27:06;12.70;;;9.27;;
1258;SDS011;619;51.472;6.628;2022-10-30T08:29:32;15.60;;;9.27;;
1258;SDS011;619;51.472;6.628;2022-10-30T08:32:00;10.97;;;8.13;;
1258;SDS011;619;51.472;6.628;2022-10-30T08:34:26;14.63;;;9.20;;
1258;SDS011;619;51.472;6.628;2022-10-30T08:36:52;11.67;;;8.43;;
1258;SDS011;619;51.472;6.628;2022-10-30T08:39:18;13.87;;;8.60;;
1258;SDS011;619;51.472;6.628;2022-10-30T08:41:44;12.90;;;7.23;;
1258;SDS011;619;51.472;6.628;2022-10-30T08:44:10;10.37;;;7.53;;
1258;SDS011;619;51.472;6.628;2022-10-30T08:46:36;11.67;;;8.07;;
1258;SDS011;619;51.472;6.628;2022-10-30T08:49:05;14.17;;;8.23;;
1258;SDS011;619;51.472;6.628;2022-10-30T08:51:31;12.43;;;7.23;;
1258;SDS011;619;51.472;6.628;2022-10-30T08:53:59;15.20;;;7.93;;
1258;SDS011;619;51.472;6.628;2022-10-30T08:56:25;13.87;;;7.60;;
1258;SDS011;619;51.472;6.628;2022-10-30T08:58:53;14.03;;;7.93;;
1258;SDS011;619;51.472;6.628;2022-10-30T09:01:19;10.00;;;8.33;;
1258;SDS011;619;51.472;6.628;2022-10-30T09:03:48;12.33;;;7.67;;
1258;SDS011;619;51.472;6.628;2022-10-30T09:06:13;12.47;;;7.83;;
1258;SDS011;619;51.472;6.628;2022-10-30T09:08:39;18.70;;;7.37;;
1258;SDS011;619;51.472;6.628;2022-10-30T09:11:04;11.63;;;7.23;;
1258;SDS011;619;51.472;6.628;2022-10-30T09:13:33;11.47;;;6.77;;
1258;SDS011;619;51.472;6.628;2022-10-30T09:16:01;12.17;;;6.50;;
1258;SDS011;619;51.472;6.628;2022-10-30T09:18:30;13.27;;;7.80;;
1258;SDS011;619;51.472;6.628;2022-10-30T09:20:55;10.43;;;7.10;;
1258;SDS011;619;51.472;6.628;2022-10-30T09:23:21;11.97;;;6.83;;
1258;SDS011;619;51.472;6.628;2022-10-30T09:25:47;8.90;;;6.70;;
1258;SDS011;619;51.472;6.628;2022-10-30T09:28:15;18.70;;;8.80;;
1258;SDS011;619;51.472;6.628;2022-10-30T09:30:43;15.80;;;9.20;;
1258;SDS011;619;51.472;6.628;2022-10-30T09:33:08;12.17;;;9.83;;
1258;SDS011;619;51.472;6.628;2022-10-30T09:35:34;13.10;;;10.40;;
1258;SDS011;619;51.472;6.628;2022-10-30T09:38:01;17.47;;;9.90;;
1258;SDS011;619;51.472;6.628;2022-10-30T09:40:30;15.10;;;10.20;;
1258;SDS011;619;51.472;6.628;2022-10-30T09:46:27;17.43;;;10.73;;
1258;SDS011;619;51.472;6.628;2022-10-30T09:51:56;11.97;;;9.60;;
1258;SDS011;619;51.472;6.628;2022-10-30T10:00:09;12.30;;;8.60;;
1258;SDS011;619;51.472;6.628;2022-10-30T10:08:18;12.63;;;7.80;;
1258;SDS011;619;51.472;6.628;2022-10-30T10:10:55;16.60;;;9.10;;
1258;SDS011;619;51.472;6.628;2022-10-30T10:16:28;17.10;;;9.33;;
1258;SDS011;619;51.472;6.628;2022-10-30T10:21:39;13.63;;;9.13;;
1258;SDS011;619;51.472;6.628;2022-10-30T10:24:19;12.60;;;9.00;;
1258;SDS011;619;51.472;6.628;2022-10-30T10:26:59;13.87;;;8.50;;
1258;SDS011;619;51.472;6.628;2022-10-30T10:38:22;15.57;;;10.30;;
1258;SDS011;619;51.472;6.628;2022-10-30T10:49:56;13.73;;;8.10;;
1258;SDS011;619;51.472;6.628;2022-10-30T10:52:59;12.87;;;7.20;;
1258;SDS011;619;51.472;6.628;2022-10-30T10:55:31;10.93;;;7.10;;
1258;SDS011;619;51.472;6.628;2022-10-30T10:58:05;14.00;;;6.70;;
1258;SDS011;619;51.472;6.628;2022-10-30T11:00:38;14.60;;;7.37;;
1258;SDS011;619;51.472;6.628;2022-10-30T11:03:12;11.37;;;6.60;;
1258;SDS011;619;51.472;6.628;2022-10-30T11:08:24;10.27;;;6.57;;
1258;SDS011;619;51.472;6.628;2022-10-30T11:10:58;10.30;;;5.67;;
1258;SDS011;619;51.472;6.628;2022-10-30T11:13:26;12.20;;;7.20;;
1258;SDS011;619;51.472;6.628;2022-10-30T11:16:00;10.23;;;5.53;;
1258;SDS011;619;51.472;6.628;2022-10-30T11:18:36;11.10;;;6.07;;
1258;SDS011;619;51.472;6.628;2022-10-30T11:21:08;10.13;;;6.00;;
1258;SDS011;619;51.472;6.628;2022-10-30T11:31:38;13.60;;;7.50;;
1258;SDS011;619;51.472;6.628;2022-10-30T11:34:38;13.23;;;8.37;;
1258;SDS011;619;51.472;6.628;2022-10-30T11:37:06;8.80;;;7.23;;
1258;SDS011;619;51.472;6.628;2022-10-30T11:40:27;11.67;;;7.10;;
1258;SDS011;619;51.472;6.628;2022-10-30T11:47:58;12.23;;;7.80;;
1258;SDS011;619;51.472;6.628;2022-10-30T11:50:28;15.63;;;7.83;;
1258;SDS011;619;51.472;6.628;2022-10-30T11:53:02;15.40;;;7.13;;
1258;SDS011;619;51.472;6.628;2022-10-30T11:55:45;12.73;;;6.87;;
1258;SDS011;619;51.472;6.628;2022-10-30T12:03:45;12.77;;;6.63;;
1258;SDS011;619;51.472;6.628;2022-10-30T12:11:29;12.27;;;7.20;;
1258;SDS011;619;51.472;6.628;2022-10-30T12:13:58;10.97;;;6.90;;
1258;SDS011;619;51.472;6.628;2022-10-30T12:16:27;15.03;;;8.00;;
1258;SDS011;619;51.472;6.628;2022-10-30T12:21:23;13.13;;;6.80;;
1258;SDS011;619;51.472;6.628;2022-10-30T12:23:52;10.90;;;7.80;;
1258;SDS011;619;51.472;6.628;2022-10-30T12:26:21;14.03;;;7.50;;
1258;SDS011;619;51.472;6.628;2022-10-30T12:28:58;12.03;;;7.20;;
1258;SDS011;619;51.472;6.628;2022-10-30T12:36:59;13.90;;;7.30;;
1258;SDS011;619;51.472;6.628;2022-10-30T12:39:44;9.30;;;7.00;;
1258;SDS011;619;51.472;6.628;2022-10-30T12:42:20;10.13;;;6.60;;
1258;SDS011;619;51.472;6.628;2022-10-30T12:44:54;11.37;;;7.20;;
1258;SDS011;619;51.472;6.628;2022-10-30T12:47:58;11.30;;;7.13;;
1258;SDS011;619;51.472;6.628;2022-10-30T12:50:30;14.00;;;6.60;;
1258;SDS011;619;51.472;6.628;2022-10-30T12:56:11;10.60;;;6.70;;
1258;SDS011;619;51.472;6.628;2022-10-30T12:59:02;9.07;;;5.77;;
1258;SDS011;619;51.472;6.628;2022-10-30T13:01:40;14.40;;;7.00;;
1258;SDS011;619;51.472;6.628;2022-10-30T13:04:21;12.20;;;6.83;;
1258;SDS011;619;51.472;6.628;2022-10-30T13:09:40;11.13;;;6.67;;
1258;SDS011;619;51.472;6.628;2022-10-30T13:17:17;12.53;;;7.77;;
1258;SDS011;619;51.472;6.628;2022-10-30T13:19:46;17.93;;;6.83;;
1258;SDS011;619;51.472;6.628;2022-10-30T13:22:15;10.63;;;6.80;;
1258;SDS011;619;51.472;6.628;2022-10-30T13:27:32;10.47;;;6.80;;
1258;SDS011;619;51.472;6.628;2022-10-30T13:30:17;10.07;;;7.50;;
1258;SDS011;619;51.472;6.628;2022-10-30T13:35:46;8.97;;;6.93;;
1258;SDS011;619;51.472;6.628;2022-10-30T13:41:12;11.43;;;7.37;;
1258;SDS011;619;51.472;6.628;2022-10-30T13:44:43;12.47;;;6.67;;
1258;SDS011;619;51.472;6.628;2022-10-30T13:47:00;15.03;;;6.77;;
1258;SDS011;619;51.472;6.628;2022-10-30T13:52:22;8.83;;;7.20;;
1258;SDS011;619;51.472;6.628;2022-10-30T14:00:03;11.37;;;7.50;;
1258;SDS011;619;51.472;6.628;2022-10-30T14:05:21;13.17;;;7.37;;
1258;SDS011;619;51.472;6.628;2022-10-30T14:13:23;8.10;;;7.30;;
1258;SDS011;619;51.472;6.628;2022-10-30T14:15:55;14.67;;;7.70;;
1258;SDS011;619;51.472;6.628;2022-10-30T14:18:38;10.93;;;7.07;;
1258;SDS011;619;51.472;6.628;2022-10-30T14:24:04;16.20;;;6.90;;
1258;SDS011;619;51.472;6.628;2022-10-30T14:26:38;14.70;;;7.67;;
1258;SDS011;619;51.472;6.628;2022-10-30T14:29:53;13.53;;;6.70;;
1258;SDS011;619;51.472;6.628;2022-10-30T14:32:00;11.53;;;6.50;;
1258;SDS011;619;51.472;6.628;2022-10-30T14:34:41;11.57;;;6.90;;
1258;SDS011;619;51.472;6.628;2022-10-30T14:37:09;15.93;;;7.17;;
1258;SDS011;619;51.472;6.628;2022-10-30T14:39:39;17.10;;;7.70;;
1258;SDS011;619;51.472;6.628;2022-10-30T14:44:45;15.10;;;7.33;;
1258;SDS011;619;51.472;6.628;2022-10-30T14:56:16;10.27;;;6.73;;
1258;SDS011;619;51.472;6.628;2022-10-30T15:07:30;9.03;;;7.43;;
1258;SDS011;619;51.472;6.628;2022-10-30T15:10:35;11.73;;;7.70;;
1258;SDS011;619;51.472;6.628;2022-10-30T15:13:24;10.73;;;6.73;;
1258;SDS011;619;51.472;6.628;2022-10-30T15:15:57;8.97;;;6.87;;
1258;SDS011;619;51.472;6.628;2022-10-30T15:18:34;10.33;;;6.90;;
1258;SDS011;619;51.472;6.628;2022-10-30T15:21:10;13.43;;;7.53;;
1258;SDS011;619;51.472;6.628;2022-10-30T15:23:44;8.40;;;6.93;;
1258;SDS011;619;51.472;6.628;2022-10-30T15:26:16;18.13;;;7.77;;
1258;SDS011;619;51.472;6.628;2022-10-30T15:28:49;9.70;;;6.90;;
1258;SDS011;619;51.472;6.628;2022-10-30T15:33:46;7.93;;;6.83;;
1258;SDS011;619;51.472;6.628;2022-10-30T15:36:15;14.20;;;7.77;;
1258;SDS011;619;51.472;6.628;2022-10-30T15:41:29;10.80;;;7.67;;
1258;SDS011;619;51.472;6.628;2022-10-30T15:43:55;12.30;;;8.90;;
1258;SDS011;619;51.472;6.628;2022-10-30T15:46:23;11.40;;;6.77;;
1258;SDS011;619;51.472;6.628;2022-10-30T15:48:49;19.17;;;8.20;;
1258;SDS011;619;51.472;6.628;2022-10-30T15:51:16;11.80;;;8.20;;
1258;SDS011;619;51.472;6.628;2022-10-30T15:53:45;11.73;;;7.70;;
1258;SDS011;619;51.472;6.628;2022-10-30T15:58:55;12.90;;;7.63;;
1258;SDS011;619;51.472;6.628;2022-10-30T16:01:30;9.30;;;6.90;;
1258;SDS011;619;51.472;6.628;2022-10-30T16:03:58;11.27;;;8.07;;
1258;SDS011;619;51.472;6.628;2022-10-30T16:06:28;16.23;;;8.60;;
1258;SDS011;619;51.472;6.628;2022-10-30T16:08:56;20.47;;;11.40;;
1258;SDS011;619;51.472;6.628;2022-10-30T16:11:23;15.30;;;10.10;;
1258;SDS011;619;51.472;6.628;2022-10-30T16:13:49;14.17;;;9.07;;
1258;SDS011;619;51.472;6.628;2022-10-30T16:18:58;11.73;;;9.20;;
1258;SDS011;619;51.472;6.628;2022-10-30T16:21:29;12.53;;;9.93;;
1258;SDS011;619;51.472;6.628;2022-10-30T16:23:56;13.80;;;10.23;;
1258;SDS011;619;51.472;6.628;2022-10-30T16:26:32;13.17;;;9.10;;
1258;SDS011;619;51.472;6.628;2022-10-30T16:31:37;15.00;;;11.43;;
1258;SDS011;619;51.472;6.628;2022-10-30T16:34:03;18.83;;;10.30;;
1258;SDS011;619;51.472;6.628;2022-10-30T16:36:36;14.93;;;12.90;;
1258;SDS011;619;51.472;6.628;2022-10-30T16:39:03;14.80;;;12.10;;
1258;SDS011;619;51.472;6.628;2022-10-30T16:41:29;17.20;;;11.37;;
1258;SDS011;619;51.472;6.628;2022-10-30T16:44:15;12.00;;;9.17;;
1258;SDS011;619;51.472;6.628;2022-10-30T16:46:47;15.40;;;10.50;;
1258;SDS011;619;51.472;6.628;2022-10-30T16:49:22;12.60;;;9.83;;
1258;SDS011;619;51.472;6.628;2022-10-30T16:51:56;11.33;;;9.50;;
1258;SDS011;619;51.472;6.628;2022-10-30T16:54:33;14.93;;;10.90;;
1258;SDS011;619;51.472;6.628;2022-10-30T16:57:02;13.10;;;8.60;;
1258;SDS011;619;51.472;6.628;2022-10-30T16:59:36;13.53;;;8.60;;
1258;SDS011;619;51.472;6.628;2022-10-30T17:02:16;13.07;;;8.27;;
1258;SDS011;619;51.472;6.628;2022-10-30T17:04:50;13.47;;;7.70;;
1258;SDS011;619;51.472;6.628;2022-10-30T17:07:19;12.03;;;8.60;;
1258;SDS011;619;51.472;6.628;2022-10-30T17:09:53;13.53;;;8.47;;
1258;SDS011;619;51.472;6.628;2022-10-30T17:14:47;16.90;;;12.20;;
1258;SDS011;619;51.472;6.628;2022-10-30T17:20:11;20.70;;;12.10;;
1258;SDS011;619;51.472;6.628;2022-10-30T17:22:49;17.57;;;12.17;;
1258;SDS011;619;51.472;6.628;2022-10-30T23:41:13;20.00;;;13.70;;
1258;SDS011;619;51.472;6.628;2022-10-30T23:43:38;16.53;;;13.80;;
1258;SDS011;619;51.472;6.628;2022-10-30T23:46:08;17.37;;;13.63;;
1258;SDS011;619;51.472;6.628;2022-10-30T23:48:34;15.23;;;12.37;;
1258;SDS011;619;51.472;6.628;2022-10-30T23:51:05;16.37;;;11.93;;
1258;SDS011;619;51.472;6.628;2022-10-30T23:53:36;17.70;;;12.80;;
1258;SDS011;619;51.472;6.628;2022-10-30T23:56:02;13.80;;;11.63;;
1258;SDS011;619;51.472;6.628;2022-10-30T23:58:29;13.20;;;11.63;;
